createdAt,value
2018-07-10T06:43:06.575Z,1008.93
2018-07-10T06:44:07.961Z,1008.95
2018-07-10T18:42:44.178Z,1009.12
2018-07-10T18:43:45.591Z,1009.05
2018-07-10T18:44:46.983Z,1009.06
2018-07-10T18:45:48.391Z,1009.06
2018-07-10T18:46:49.781Z,1009.05
2018-07-10T18:47:51.209Z,1009.13
2018-07-10T18:48:52.620Z,1009.12
2018-07-10T18:49:54.040Z,1009.13
2018-07-10T18:50:55.436Z,1009.14
2018-07-10T18:51:57.473Z,1009.15
2018-07-10T18:52:58.890Z,1009.16
2018-07-10T18:54:00.383Z,1009.12
2018-07-10T18:55:01.792Z,1009.08
2018-07-10T18:56:03.769Z,1009.13
2018-07-10T18:57:06.094Z,1009.08
2018-07-10T18:58:07.505Z,1009.06
2018-07-10T18:59:08.943Z,1009.04
2018-07-10T19:00:12.491Z,1009.05
2018-07-10T19:01:13.921Z,1009.06
2018-07-10T19:02:15.872Z,1009.09
2018-07-10T19:03:17.267Z,1009.12
2018-07-10T19:04:18.782Z,1009.12
2018-07-10T19:05:20.139Z,1009.14
2018-07-10T19:06:21.545Z,1009.20
2018-07-10T19:07:23.820Z,1009.15
2018-07-10T19:08:25.200Z,1009.15
2018-07-10T19:09:26.644Z,1009.16
2018-07-10T19:10:28.216Z,1009.16
2018-07-10T19:11:29.617Z,1009.16
2018-07-10T19:12:31.044Z,1009.20
2018-07-10T19:13:32.506Z,1009.26
2018-07-10T19:14:33.920Z,1009.29
2018-07-10T19:15:35.367Z,1009.34
2018-07-10T19:16:37.679Z,1009.35
2018-07-10T19:17:40.100Z,1009.37
2018-07-10T19:18:42.090Z,1009.37
2018-07-10T19:19:43.442Z,1009.40
2018-07-10T19:20:44.889Z,1009.34
2018-07-10T19:21:47.376Z,1009.40
2018-07-10T19:22:48.847Z,1009.41
2018-07-10T19:23:50.158Z,1009.40
2018-07-10T19:24:51.555Z,1009.38
2018-07-10T19:25:53.251Z,1009.42
2018-07-10T19:26:54.651Z,1009.45
2018-07-10T19:27:56.601Z,1009.41
2018-07-10T19:28:58.032Z,1009.42
2018-07-10T19:29:59.430Z,1009.39
2018-07-10T19:31:01.787Z,1009.34
2018-07-10T19:32:03.198Z,1009.31
2018-07-10T19:33:04.626Z,1009.27
2018-07-10T19:34:06.826Z,1009.27
2018-07-10T19:35:08.284Z,1009.23
2018-07-10T19:36:09.639Z,1009.23
2018-07-10T19:37:11.808Z,1009.24
2018-07-10T19:38:13.218Z,1009.21
2018-07-10T19:39:14.629Z,1009.24
2018-07-10T19:40:16.054Z,1009.25
2018-07-10T19:41:17.414Z,1009.26
2018-07-10T19:42:18.806Z,1009.25
2018-07-10T19:43:20.219Z,1009.27
2018-07-10T19:44:22.398Z,1009.27
2018-07-10T19:45:25.388Z,1009.25
2018-07-10T19:46:26.786Z,1009.27
2018-07-10T19:47:28.192Z,1009.26
2018-07-10T19:48:29.581Z,1009.27
2018-07-10T19:49:30.989Z,1009.23
2018-07-10T19:50:32.384Z,1009.22
2018-07-10T19:51:33.767Z,1009.21
2018-07-10T19:52:35.243Z,1009.24
2018-07-10T19:53:37.521Z,1009.19
2018-07-10T19:54:38.944Z,1009.19
2018-07-10T19:55:41.221Z,1009.19
2018-07-10T19:56:42.637Z,1009.14
2018-07-10T19:57:44.701Z,1009.16
2018-07-10T19:58:46.128Z,1009.20
2018-07-10T19:59:47.521Z,1009.18
2018-07-10T20:00:48.941Z,1009.22
2018-07-10T20:01:51.011Z,1009.18
2018-07-10T20:02:52.406Z,1009.19
2018-07-10T20:03:54.569Z,1009.21
2018-07-10T20:04:55.957Z,1009.19
2018-07-10T20:05:57.371Z,1009.17
2018-07-10T20:06:58.752Z,1009.15
2018-07-10T20:08:01.829Z,1009.18
2018-07-10T20:09:03.252Z,1009.19
2018-07-10T20:10:06.145Z,1009.15
2018-07-10T20:11:08.436Z,1009.14
2018-07-10T20:12:10.439Z,1009.12
2018-07-10T20:13:13.623Z,1009.16
2018-07-10T20:14:15.056Z,1009.14
2018-07-10T20:15:16.457Z,1009.12
2018-07-10T20:16:17.874Z,1009.12
2018-07-10T20:17:19.870Z,1009.13
2018-07-10T20:18:21.675Z,1009.08
2018-07-10T20:19:23.100Z,1009.12
2018-07-10T20:20:24.483Z,1009.12
2018-07-10T20:21:26.507Z,1009.11
2018-07-10T20:22:27.910Z,1009.12
2018-07-10T20:23:30.930Z,1009.08
2018-07-10T20:24:33.213Z,1009.10
2018-07-10T20:25:34.570Z,1009.12
2018-07-10T20:26:36.527Z,1009.13
2018-07-10T20:27:37.933Z,1009.14
2018-07-10T20:28:41.454Z,1009.11
2018-07-10T20:29:43.583Z,1009.16
2018-07-10T20:30:44.991Z,1009.14
2018-07-10T20:31:48.682Z,1009.17
2018-07-10T20:32:51.528Z,1009.18
2018-07-10T20:33:53.499Z,1009.23
2018-07-10T20:34:56.052Z,1009.25
2018-07-10T20:35:57.475Z,1009.27
2018-07-10T20:37:00.462Z,1009.24
2018-07-10T20:38:01.018Z,1009.21
2018-07-10T20:39:02.965Z,1009.22
2018-07-10T20:40:04.385Z,1009.25
2018-07-10T20:41:05.814Z,1009.25
2018-07-10T20:42:07.253Z,1009.26
2018-07-10T20:43:11.014Z,1009.27
2018-07-10T20:44:12.394Z,1009.23
2018-07-10T20:45:14.428Z,1009.26
2018-07-10T20:46:15.874Z,1009.21
2018-07-10T20:47:17.956Z,1009.23
2018-07-10T20:48:19.365Z,1009.23
2018-07-10T20:49:21.490Z,1009.23
2018-07-10T20:50:22.889Z,1009.22
2018-07-10T20:51:24.328Z,1009.21
2018-07-10T20:52:26.229Z,1009.22
2018-07-10T20:53:28.356Z,1009.19
2018-07-10T20:54:30.958Z,1009.21
2018-07-10T20:55:32.961Z,1009.18
2018-07-10T20:56:33.788Z,1009.17
2018-07-10T20:57:36.040Z,1009.15
2018-07-10T20:58:37.463Z,1009.15
2018-07-10T20:59:38.873Z,1009.16
2018-07-10T21:00:41.009Z,1009.13
2018-07-10T21:01:42.464Z,1009.15
2018-07-10T21:02:44.576Z,1009.12
2018-07-10T21:03:46.628Z,1009.11
2018-07-10T21:04:48.022Z,1009.08
2018-07-10T21:05:49.445Z,1009.05
2018-07-10T21:06:50.876Z,1009.07
2018-07-10T21:07:52.344Z,1009.07
2018-07-10T21:08:53.737Z,1009.05
2018-07-10T21:09:55.653Z,1009.08
2018-07-10T21:10:57.064Z,1009.13
2018-07-10T21:11:58.491Z,1009.09
2018-07-10T21:12:59.900Z,1009.11
2018-07-10T21:14:01.324Z,1009.12
2018-07-10T21:15:02.745Z,1009.07
2018-07-10T21:16:04.139Z,1009.05
2018-07-10T21:17:05.603Z,1009.10
2018-07-10T21:18:07.723Z,1009.07
2018-07-10T21:19:09.128Z,1009.04
2018-07-10T21:20:10.968Z,1009.04
2018-07-10T21:21:12.352Z,1009.02
2018-07-10T21:22:14.334Z,1009.04
2018-07-10T21:23:15.987Z,1009.02
2018-07-10T21:24:17.373Z,1009.02
2018-07-10T21:25:18.952Z,1008.99
2018-07-10T21:26:20.812Z,1008.98
2018-07-10T21:27:22.331Z,1008.99
2018-07-10T21:28:23.742Z,1008.98
2018-07-10T21:29:25.088Z,1008.98
2018-07-10T21:30:27.253Z,1008.99
2018-07-10T21:31:28.604Z,1008.99
2018-07-10T21:32:29.999Z,1008.96
2018-07-10T21:33:31.386Z,1008.95
2018-07-10T21:34:32.802Z,1008.95
2018-07-10T21:35:35.296Z,1008.96
2018-07-10T21:36:37.358Z,1008.94
2018-07-10T21:37:38.751Z,1008.95
2018-07-10T21:38:41.845Z,1008.95
2018-07-10T21:39:43.457Z,1008.96
2018-07-10T21:40:44.834Z,1008.96
2018-07-10T21:41:47.499Z,1008.95
2018-07-10T21:42:48.882Z,1008.93
2018-07-10T21:43:52.418Z,1008.90
2018-07-10T21:44:53.769Z,1008.92
2018-07-10T21:45:55.153Z,1008.93
2018-07-10T21:46:56.545Z,1008.91
2018-07-10T21:47:57.940Z,1008.92
2018-07-10T21:48:59.334Z,1008.93
2018-07-10T21:50:00.715Z,1008.96
2018-07-10T21:51:02.102Z,1008.93
2018-07-10T21:52:03.502Z,1008.89
2018-07-10T21:53:04.855Z,1008.91
2018-07-10T21:54:06.253Z,1008.92
2018-07-10T21:55:07.644Z,1008.87
2018-07-10T21:56:09.003Z,1008.87
2018-07-10T21:57:10.385Z,1008.86
2018-07-10T21:58:11.774Z,1008.89
2018-07-10T21:59:13.117Z,1008.88
2018-07-10T22:00:14.511Z,1008.91
2018-07-10T22:01:15.906Z,1008.91
2018-07-10T22:02:18.144Z,1008.90
2018-07-10T22:03:19.527Z,1008.92
2018-07-10T22:04:20.930Z,1008.91
2018-07-10T22:05:22.329Z,1008.89
2018-07-10T22:06:23.712Z,1008.89
2018-07-10T22:07:25.097Z,1008.85
2018-07-10T22:08:26.490Z,1008.85
2018-07-10T22:09:27.953Z,1008.84
2018-07-10T22:10:29.264Z,1008.83
2018-07-10T22:11:30.657Z,1008.82
2018-07-10T22:12:32.040Z,1008.78
2018-07-10T22:13:33.424Z,1008.80
2018-07-10T22:14:34.811Z,1008.79
2018-07-10T22:15:36.214Z,1008.76
2018-07-10T22:16:37.605Z,1008.77
2018-07-10T22:17:38.982Z,1008.71
2018-07-10T22:18:40.362Z,1008.71
2018-07-10T22:19:41.748Z,1008.71
2018-07-10T22:20:43.135Z,1008.67
2018-07-10T22:21:44.527Z,1008.69
2018-07-10T22:22:45.901Z,1008.67
2018-07-10T22:23:47.292Z,1008.64
2018-07-10T22:24:48.669Z,1008.64
2018-07-10T22:25:50.075Z,1008.67
2018-07-10T22:26:51.465Z,1008.64
2018-07-10T22:27:52.858Z,1008.66
2018-07-10T22:28:54.249Z,1008.68
2018-07-10T22:29:55.636Z,1008.65
2018-07-10T22:30:57.015Z,1008.64
2018-07-10T22:31:58.397Z,1008.69
2018-07-10T22:32:59.789Z,1008.73
2018-07-10T22:34:01.165Z,1008.77
2018-07-10T22:35:02.558Z,1008.76
2018-07-10T22:36:03.951Z,1008.82
2018-07-10T22:37:05.353Z,1008.78
2018-07-10T22:38:06.726Z,1008.82
2018-07-10T22:39:08.106Z,1008.80
2018-07-10T22:40:09.506Z,1008.79
2018-07-10T22:41:10.897Z,1008.79
2018-07-10T22:42:12.273Z,1008.79
2018-07-10T22:43:13.664Z,1008.78
2018-07-10T22:44:15.042Z,1008.80
2018-07-10T22:45:16.425Z,1008.74
2018-07-10T22:46:17.810Z,1008.73
2018-07-10T22:47:19.208Z,1008.72
2018-07-10T22:48:20.588Z,1008.66
2018-07-10T22:49:21.980Z,1008.64
2018-07-10T22:50:23.367Z,1008.62
2018-07-10T22:51:24.760Z,1008.60
2018-07-10T22:52:26.148Z,1008.62
2018-07-10T22:53:27.541Z,1008.58
2018-07-10T22:54:28.926Z,1008.62
2018-07-10T22:55:30.309Z,1008.62
2018-07-10T22:56:31.698Z,1008.56
2018-07-10T22:57:33.096Z,1008.58
2018-07-10T22:58:34.479Z,1008.57
2018-07-10T22:59:35.865Z,1008.59
2018-07-10T23:00:37.244Z,1008.59
2018-07-10T23:01:38.639Z,1008.56
2018-07-10T23:02:40.039Z,1008.54
2018-07-10T23:03:41.408Z,1008.57
2018-07-10T23:04:42.825Z,1008.57
2018-07-10T23:05:44.197Z,1008.59
2018-07-10T23:06:45.577Z,1008.57
2018-07-10T23:07:46.971Z,1008.56
2018-07-10T23:08:48.356Z,1008.57
2018-07-10T23:09:49.738Z,1008.57
2018-07-10T23:10:51.135Z,1008.60
2018-07-10T23:11:52.527Z,1008.62
2018-07-10T23:12:53.919Z,1008.56
2018-07-10T23:13:55.293Z,1008.60
2018-07-10T23:14:56.687Z,1008.55
2018-07-10T23:15:58.083Z,1008.53
2018-07-10T23:16:59.468Z,1008.52
2018-07-10T23:18:00.853Z,1008.50
2018-07-10T23:19:03.182Z,1008.53
2018-07-10T23:20:04.577Z,1008.54
2018-07-10T23:21:05.961Z,1008.53
2018-07-10T23:22:07.352Z,1008.46
2018-07-10T23:23:08.736Z,1008.46
2018-07-10T23:24:10.124Z,1008.43
2018-07-10T23:25:11.514Z,1008.45
2018-07-10T23:26:12.907Z,1008.51
2018-07-10T23:27:14.305Z,1008.57
2018-07-10T23:28:15.684Z,1008.52
2018-07-10T23:29:17.065Z,1008.53
2018-07-10T23:30:18.448Z,1008.52
2018-07-10T23:31:19.840Z,1008.53
2018-07-10T23:32:21.220Z,1008.55
2018-07-10T23:33:22.598Z,1008.55
2018-07-10T23:34:23.996Z,1008.52
2018-07-10T23:35:25.398Z,1008.50
2018-07-10T23:36:26.772Z,1008.44
2018-07-10T23:37:28.161Z,1008.40
2018-07-10T23:38:29.577Z,1008.40
2018-07-10T23:39:30.930Z,1008.36
2018-07-10T23:40:32.315Z,1008.33
2018-07-10T23:41:33.704Z,1008.34
2018-07-10T23:42:35.085Z,1008.29
2018-07-10T23:43:36.469Z,1008.25
2018-07-10T23:44:37.853Z,1008.20
2018-07-10T23:45:39.238Z,1008.24
2018-07-10T23:46:40.625Z,1008.27
2018-07-10T23:47:42.017Z,1008.20
2018-07-10T23:48:43.397Z,1008.10
2018-07-10T23:49:44.776Z,1008.08
2018-07-10T23:50:46.188Z,1008.04
2018-07-10T23:51:47.516Z,1008.01
2018-07-10T23:52:48.899Z,1007.97
2018-07-10T23:53:50.296Z,1007.92
2018-07-10T23:54:51.676Z,1007.91
2018-07-10T23:55:53.069Z,1007.91
2018-07-10T23:56:54.959Z,1007.84
2018-07-10T23:57:56.340Z,1007.79
2018-07-10T23:58:57.724Z,1007.85
2018-07-10T23:59:59.110Z,1007.91
